sensor_id;sensor_type;location;lat;lon;timestamp;pressure;altitude;pressure_sealevel;temperature;humidity
11049;BME280;5577;42.706;23.160;2023-01-27T00:02:19;93323.50;;;0.01;100.00
11049;BME280;5577;42.706;23.160;2023-01-27T00:05:04;93317.56;;;0.01;100.00
11049;BME280;5577;42.706;23.160;2023-01-27T00:07:48;93319.34;;;-0.08;100.00
11049;BME280;5577;42.706;23.160;2023-01-27T00:10:32;93309.88;;;-0.04;100.00
11049;BME280;5577;42.706;23.160;2023-01-27T00:13:16;93303.19;;;0.03;100.00
11049;BME280;5577;42.706;23.160;2023-01-27T00:16:14;93310.19;;;0.03;100.00
11049;BME280;5577;42.706;23.160;2023-01-27T00:18:58;93302.31;;;0.17;100.00
11049;BME280;5577;42.706;23.160;2023-01-27T00:21:42;93295.56;;;0.16;100.00
11049;BME280;5577;42.706;23.160;2023-01-27T00:24:45;93284.56;;;0.19;100.00
11049;BME280;5577;42.706;23.160;2023-01-27T00:27:29;93289.94;;;0.22;100.00
11049;BME280;5577;42.706;23.160;2023-01-27T00:30:13;93281.66;;;0.20;100.00
11049;BME280;5577;42.706;23.160;2023-01-27T00:32:57;93283.50;;;0.20;100.00
11049;BME280;5577;42.706;23.160;2023-01-27T00:36:05;93283.78;;;0.10;100.00
11049;BME280;5577;42.706;23.160;2023-01-27T00:38:49;93274.13;;;0.10;100.00
11049;BME280;5577;42.706;23.160;2023-01-27T00:41:33;93275.97;;;0.10;100.00
11049;BME280;5577;42.706;23.160;2023-01-27T00:44:17;93275.66;;;0.11;100.00
11049;BME280;5577;42.706;23.160;2023-01-27T00:47:01;93273.22;;;0.15;100.00
11049;BME280;5577;42.706;23.160;2023-01-27T00:49:45;93282.53;;;0.16;100.00
11049;BME280;5577;42.706;23.160;2023-01-27T00:52:29;93291.44;;;0.15;100.00
11049;BME280;5577;42.706;23.160;2023-01-27T00:55:13;93286.56;;;0.22;100.00
11049;BME280;5577;42.706;23.160;2023-01-27T00:57:58;93282.84;;;0.14;100.00
11049;BME280;5577;42.706;23.160;2023-01-27T01:00:43;93284.84;;;0.17;100.00
11049;BME280;5577;42.706;23.160;2023-01-27T01:03:28;93273.50;;;0.13;100.00
11049;BME280;5577;42.706;23.160;2023-01-27T01:06:16;93273.06;;;0.11;100.00
11049;BME280;5577;42.706;23.160;2023-01-27T01:09:01;93274.75;;;0.16;100.00
11049;BME280;5577;42.706;23.160;2023-01-27T01:11:45;93288.53;;;0.16;100.00
11049;BME280;5577;42.706;23.160;2023-01-27T01:14:28;93285.78;;;0.21;100.00
11049;BME280;5577;42.706;23.160;2023-01-27T01:17:12;93290.34;;;0.16;100.00
11049;BME280;5577;42.706;23.160;2023-01-27T01:19:56;93292.63;;;0.08;100.00
11049;BME280;5577;42.706;23.160;2023-01-27T01:22:40;93293.88;;;0.11;100.00
11049;BME280;5577;42.706;23.160;2023-01-27T01:25:24;93297.25;;;0.20;100.00
11049;BME280;5577;42.706;23.160;2023-01-27T01:28:08;93294.53;;;0.25;100.00
11049;BME280;5577;42.706;23.160;2023-01-27T01:30:52;93291.31;;;0.28;100.00
11049;BME280;5577;42.706;23.160;2023-01-27T01:33:36;93292.88;;;0.29;100.00
11049;BME280;5577;42.706;23.160;2023-01-27T01:36:21;93291.34;;;0.37;100.00
11049;BME280;5577;42.706;23.160;2023-01-27T01:39:05;93295.63;;;0.33;100.00
11049;BME280;5577;42.706;23.160;2023-01-27T01:41:49;93299.44;;;0.35;100.00
11049;BME280;5577;42.706;23.160;2023-01-27T01:44:33;93306.84;;;0.42;100.00
11049;BME280;5577;42.706;23.160;2023-01-27T01:47:18;93304.53;;;0.49;100.00
11049;BME280;5577;42.706;23.160;2023-01-27T01:50:02;93292.44;;;0.44;100.00
11049;BME280;5577;42.706;23.160;2023-01-27T01:52:47;93294.56;;;0.42;100.00
11049;BME280;5577;42.706;23.160;2023-01-27T01:55:33;93293.34;;;0.40;100.00
11049;BME280;5577;42.706;23.160;2023-01-27T01:58:19;93285.69;;;0.43;100.00
11049;BME280;5577;42.706;23.160;2023-01-27T02:01:04;93251.50;;;0.19;100.00
11049;BME280;5577;42.706;23.160;2023-01-27T02:03:52;93267.94;;;0.45;100.00
11049;BME280;5577;42.706;23.160;2023-01-27T02:06:49;93276.50;;;0.37;100.00
11049;BME280;5577;42.706;23.160;2023-01-27T02:09:37;93263.31;;;0.42;100.00
11049;BME280;5577;42.706;23.160;2023-01-27T02:12:21;93254.59;;;0.38;100.00
11049;BME280;5577;42.706;23.160;2023-01-27T02:15:07;93246.94;;;0.33;100.00
11049;BME280;5577;42.706;23.160;2023-01-27T02:17:52;93233.00;;;0.29;100.00
11049;BME280;5577;42.706;23.160;2023-01-27T02:20:44;93250.63;;;0.41;100.00
11049;BME280;5577;42.706;23.160;2023-01-27T02:26:27;93223.63;;;0.28;100.00
11049;BME280;5577;42.706;23.160;2023-01-27T02:29:14;93226.44;;;0.40;100.00
11049;BME280;5577;42.706;23.160;2023-01-27T02:31:59;93213.41;;;0.40;100.00
11049;BME280;5577;42.706;23.160;2023-01-27T02:34:42;93218.00;;;0.35;100.00
11049;BME280;5577;42.706;23.160;2023-01-27T02:37:27;93224.09;;;0.22;100.00
11049;BME280;5577;42.706;23.160;2023-01-27T02:40:13;93230.06;;;0.22;100.00
11049;BME280;5577;42.706;23.160;2023-01-27T02:42:58;93208.63;;;0.08;100.00
11049;BME280;5577;42.706;23.160;2023-01-27T02:45:45;93218.25;;;0.08;100.00
11049;BME280;5577;42.706;23.160;2023-01-27T02:48:29;93226.22;;;0.03;100.00
11049;BME280;5577;42.706;23.160;2023-01-27T02:51:13;93236.31;;;0.04;100.00
11049;BME280;5577;42.706;23.160;2023-01-27T02:53:58;93230.78;;;-0.03;100.00
11049;BME280;5577;42.706;23.160;2023-01-27T02:56:42;93225.28;;;0.07;100.00
11049;BME280;5577;42.706;23.160;2023-01-27T02:59:25;93228.97;;;0.06;100.00
11049;BME280;5577;42.706;23.160;2023-01-27T03:02:09;93224.34;;;0.03;100.00
11049;BME280;5577;42.706;23.160;2023-01-27T03:04:58;93223.75;;;0.06;100.00
11049;BME280;5577;42.706;23.160;2023-01-27T03:07:43;93222.19;;;-0.04;100.00
11049;BME280;5577;42.706;23.160;2023-01-27T03:10:27;93230.63;;;0.02;100.00
11049;BME280;5577;42.706;23.160;2023-01-27T03:13:11;93224.81;;;0.05;100.00
11049;BME280;5577;42.706;23.160;2023-01-27T03:15:58;93228.22;;;0.06;100.00
11049;BME280;5577;42.706;23.160;2023-01-27T03:19:01;93217.78;;;0.14;100.00
11049;BME280;5577;42.706;23.160;2023-01-27T03:21:45;93213.38;;;0.23;100.00
11049;BME280;5577;42.706;23.160;2023-01-27T03:24:33;93215.38;;;0.18;100.00
11049;BME280;5577;42.706;23.160;2023-01-27T03:27:17;93199.78;;;0.26;100.00
11049;BME280;5577;42.706;23.160;2023-01-27T03:30:02;93198.22;;;0.17;100.00
11049;BME280;5577;42.706;23.160;2023-01-27T03:32:46;93196.06;;;0.19;100.00
11049;BME280;5577;42.706;23.160;2023-01-27T03:35:34;93191.06;;;0.31;100.00
11049;BME280;5577;42.706;23.160;2023-01-27T03:38:21;93193.06;;;0.34;100.00
11049;BME280;5577;42.706;23.160;2023-01-27T03:41:24;93196.41;;;0.34;100.00
11049;BME280;5577;42.706;23.160;2023-01-27T03:44:27;93195.34;;;0.44;100.00
11049;BME280;5577;42.706;23.160;2023-01-27T03:47:30;93187.38;;;0.40;100.00
11049;BME280;5577;42.706;23.160;2023-01-27T03:50:14;93180.00;;;0.42;100.00
11049;BME280;5577;42.706;23.160;2023-01-27T03:53:03;93057.56;;;-0.30;100.00
11049;BME280;5577;42.706;23.160;2023-01-27T03:55:48;93163.78;;;0.28;100.00
11049;BME280;5577;42.706;23.160;2023-01-27T03:58:34;93164.69;;;0.15;100.00
11049;BME280;5577;42.706;23.160;2023-01-27T04:01:20;93162.41;;;0.22;100.00
11049;BME280;5577;42.706;23.160;2023-01-27T04:04:05;93165.63;;;0.28;100.00
11049;BME280;5577;42.706;23.160;2023-01-27T04:07:08;93166.69;;;0.35;100.00
11049;BME280;5577;42.706;23.160;2023-01-27T04:09:52;93176.50;;;0.30;100.00
11049;BME280;5577;42.706;23.160;2023-01-27T04:12:36;93182.78;;;0.37;100.00
11049;BME280;5577;42.706;23.160;2023-01-27T04:15:20;93181.25;;;0.36;100.00
11049;BME280;5577;42.706;23.160;2023-01-27T04:18:04;93190.44;;;0.42;100.00
11049;BME280;5577;42.706;23.160;2023-01-27T04:20:48;93202.38;;;0.35;100.00
11049;BME280;5577;42.706;23.160;2023-01-27T04:23:32;93217.19;;;0.17;100.00
11049;BME280;5577;42.706;23.160;2023-01-27T04:26:17;93230.03;;;0.05;100.00
11049;BME280;5577;42.706;23.160;2023-01-27T04:29:01;93240.75;;;0.12;100.00
11049;BME280;5577;42.706;23.160;2023-01-27T04:31:46;93235.41;;;0.17;100.00
11049;BME280;5577;42.706;23.160;2023-01-27T04:34:30;93200.78;;;-0.09;100.00
11049;BME280;5577;42.706;23.160;2023-01-27T04:37:14;93249.53;;;0.25;100.00
11049;BME280;5577;42.706;23.160;2023-01-27T04:39:58;93256.72;;;0.28;100.00
11049;BME280;5577;42.706;23.160;2023-01-27T04:42:42;93258.25;;;0.29;100.00
11049;BME280;5577;42.706;23.160;2023-01-27T04:45:26;93259.78;;;0.30;100.00
11049;BME280;5577;42.706;23.160;2023-01-27T04:48:10;93256.88;;;0.31;100.00
11049;BME280;5577;42.706;23.160;2023-01-27T04:50:54;93266.56;;;0.39;100.00
11049;BME280;5577;42.706;23.160;2023-01-27T04:53:38;93275.72;;;0.37;100.00
11049;BME280;5577;42.706;23.160;2023-01-27T04:59:14;93252.28;;;0.28;100.00
11049;BME280;5577;42.706;23.160;2023-01-27T05:01:59;93256.28;;;0.34;100.00
11049;BME280;5577;42.706;23.160;2023-01-27T05:04:42;93234.69;;;0.25;100.00
11049;BME280;5577;42.706;23.160;2023-01-27T05:07:26;93269.16;;;0.39;100.00
11049;BME280;5577;42.706;23.160;2023-01-27T05:10:10;93263.47;;;0.37;100.00
11049;BME280;5577;42.706;23.160;2023-01-27T05:12:55;93253.22;;;0.49;100.00
11049;BME280;5577;42.706;23.160;2023-01-27T05:15:39;93252.78;;;0.47;100.00
11049;BME280;5577;42.706;23.160;2023-01-27T05:18:22;93262.09;;;0.40;100.00
11049;BME280;5577;42.706;23.160;2023-01-27T05:21:07;93235.94;;;0.45;100.00
11049;BME280;5577;42.706;23.160;2023-01-27T05:23:54;93257.53;;;0.54;100.00
11049;BME280;5577;42.706;23.160;2023-01-27T05:26:38;93264.09;;;0.43;100.00
11049;BME280;5577;42.706;23.160;2023-01-27T05:29:23;93248.97;;;0.53;100.00
11049;BME280;5577;42.706;23.160;2023-01-27T05:32:07;93243.28;;;0.51;100.00
11049;BME280;5577;42.706;23.160;2023-01-27T05:34:51;93251.84;;;0.43;100.00
11049;BME280;5577;42.706;23.160;2023-01-27T05:37:35;93244.22;;;0.55;100.00
11049;BME280;5577;42.706;23.160;2023-01-27T05:40:19;93245.88;;;0.51;100.00
11049;BME280;5577;42.706;23.160;2023-01-27T05:43:03;93234.88;;;0.63;100.00
11049;BME280;5577;42.706;23.160;2023-01-27T05:45:47;93221.38;;;0.52;100.00
11049;BME280;5577;42.706;23.160;2023-01-27T05:48:36;93226.25;;;0.37;100.00
11049;BME280;5577;42.706;23.160;2023-01-27T05:51:22;93200.22;;;0.20;100.00
11049;BME280;5577;42.706;23.160;2023-01-27T05:54:08;93225.38;;;0.50;100.00
11049;BME280;5577;42.706;23.160;2023-01-27T05:56:52;93222.78;;;0.58;100.00
11049;BME280;5577;42.706;23.160;2023-01-27T05:59:36;93224.78;;;0.61;100.00
11049;BME280;5577;42.706;23.160;2023-01-27T06:02:20;93236.41;;;0.64;100.00
11049;BME280;5577;42.706;23.160;2023-01-27T06:05:04;93231.94;;;0.47;100.00
11049;BME280;5577;42.706;23.160;2023-01-27T06:07:48;93244.06;;;0.52;100.00
11049;BME280;5577;42.706;23.160;2023-01-27T06:10:32;93245.72;;;0.56;100.00
11049;BME280;5577;42.706;23.160;2023-01-27T06:13:21;93254.94;;;0.62;100.00
11049;BME280;5577;42.706;23.160;2023-01-27T06:16:11;93257.53;;;0.62;100.00
11049;BME280;5577;42.706;23.160;2023-01-27T06:18:56;93251.28;;;0.55;100.00
11049;BME280;5577;42.706;23.160;2023-01-27T06:21:41;93245.44;;;0.58;100.00
11049;BME280;5577;42.706;23.160;2023-01-27T06:24:25;93241.31;;;0.65;100.00
11049;BME280;5577;42.706;23.160;2023-01-27T06:27:09;93244.22;;;0.64;100.00
11049;BME280;5577;42.706;23.160;2023-01-27T06:29:53;93238.72;;;0.65;100.00
11049;BME280;5577;42.706;23.160;2023-01-27T06:32:37;93246.22;;;0.75;100.00
11049;BME280;5577;42.706;23.160;2023-01-27T06:35:21;93245.91;;;0.68;100.00
11049;BME280;5577;42.706;23.160;2023-01-27T06:38:07;93263.53;;;0.80;100.00
11049;BME280;5577;42.706;23.160;2023-01-27T06:40:51;93250.22;;;0.81;100.00
11049;BME280;5577;42.706;23.160;2023-01-27T06:43:35;93250.22;;;0.90;100.00
11049;BME280;5577;42.706;23.160;2023-01-27T06:46:20;93251.56;;;0.96;100.00
11049;BME280;5577;42.706;23.160;2023-01-27T06:49:03;93257.69;;;0.91;100.00
11049;BME280;5577;42.706;23.160;2023-01-27T06:51:47;93261.53;;;0.60;100.00
11049;BME280;5577;42.706;23.160;2023-01-27T06:54:31;93265.19;;;0.50;100.00
11049;BME280;5577;42.706;23.160;2023-01-27T06:57:16;93262.91;;;0.49;100.00
11049;BME280;5577;42.706;23.160;2023-01-27T07:00:00;93263.66;;;0.41;100.00
11049;BME280;5577;42.706;23.160;2023-01-27T07:02:44;93256.16;;;0.48;100.00
11049;BME280;5577;42.706;23.160;2023-01-27T07:05:28;93226.28;;;0.45;100.00
11049;BME280;5577;42.706;23.160;2023-01-27T07:08:13;93260.63;;;0.81;100.00
11049;BME280;5577;42.706;23.160;2023-01-27T07:10:57;93262.78;;;0.79;100.00
11049;BME280;5577;42.706;23.160;2023-01-27T07:13:41;93259.56;;;0.99;100.00
11049;BME280;5577;42.706;23.160;2023-01-27T07:16:24;93267.81;;;1.10;100.00
11049;BME280;5577;42.706;23.160;2023-01-27T07:19:08;93267.06;;;1.18;100.00
11049;BME280;5577;42.706;23.160;2023-01-27T07:21:52;93232.88;;;1.11;100.00
11049;BME280;5577;42.706;23.160;2023-01-27T07:24:36;93255.53;;;1.44;100.00
11049;BME280;5577;42.706;23.160;2023-01-27T07:27:21;93255.47;;;1.53;100.00
11049;BME280;5577;42.706;23.160;2023-01-27T07:30:06;93260.56;;;1.49;100.00
11049;BME280;5577;42.706;23.160;2023-01-27T07:32:50;93271.28;;;1.65;100.00
11049;BME280;5577;42.706;23.160;2023-01-27T07:35:36;93268.19;;;1.71;100.00
11049;BME280;5577;42.706;23.160;2023-01-27T07:38:20;93257.78;;;1.54;100.00
11049;BME280;5577;42.706;23.160;2023-01-27T07:41:05;93257.00;;;1.71;100.00
11049;BME280;5577;42.706;23.160;2023-01-27T07:43:49;93234.53;;;1.78;100.00
11049;BME280;5577;42.706;23.160;2023-01-27T07:46:34;93248.00;;;1.97;100.00
11049;BME280;5577;42.706;23.160;2023-01-27T07:49:18;93257.66;;;1.97;100.00
11049;BME280;5577;42.706;23.160;2023-01-27T07:52:02;93261.34;;;1.96;100.00
11049;BME280;5577;42.706;23.160;2023-01-27T07:54:46;93260.69;;;2.07;100.00
11049;BME280;5577;42.706;23.160;2023-01-27T07:57:30;93230.44;;;1.69;100.00
11049;BME280;5577;42.706;23.160;2023-01-27T08:00:14;93258.38;;;2.14;100.00
11049;BME280;5577;42.706;23.160;2023-01-27T08:03:00;93259.75;;;2.12;100.00
11049;BME280;5577;42.706;23.160;2023-01-27T08:05:44;93251.75;;;2.17;100.00
11049;BME280;5577;42.706;23.160;2023-01-27T08:08:28;93252.34;;;2.22;100.00
11049;BME280;5577;42.706;23.160;2023-01-27T08:11:13;93234.94;;;1.97;100.00
11049;BME280;5577;42.706;23.160;2023-01-27T08:13:58;93252.28;;;2.31;100.00
11049;BME280;5577;42.706;23.160;2023-01-27T08:16:42;93259.19;;;2.35;100.00
11049;BME280;5577;42.706;23.160;2023-01-27T08:19:26;93228.66;;;2.27;100.00
11049;BME280;5577;42.706;23.160;2023-01-27T08:22:10;93251.94;;;2.41;100.00
11049;BME280;5577;42.706;23.160;2023-01-27T08:24:54;93257.69;;;2.55;100.00
11049;BME280;5577;42.706;23.160;2023-01-27T08:27:38;93249.84;;;2.55;100.00
11049;BME280;5577;42.706;23.160;2023-01-27T08:30:22;93252.78;;;2.53;100.00
11049;BME280;5577;42.706;23.160;2023-01-27T08:33:06;93269.09;;;2.50;100.00
11049;BME280;5577;42.706;23.160;2023-01-27T08:35:50;93268.53;;;2.36;100.00
11049;BME280;5577;42.706;23.160;2023-01-27T08:38:34;93267.69;;;2.24;100.00
11049;BME280;5577;42.706;23.160;2023-01-27T08:41:22;93276.78;;;1.72;100.00
11049;BME280;5577;42.706;23.160;2023-01-27T08:44:07;93276.63;;;1.60;100.00
11049;BME280;5577;42.706;23.160;2023-01-27T08:46:51;93275.00;;;1.38;100.00
11049;BME280;5577;42.706;23.160;2023-01-27T08:49:35;93276.38;;;1.44;100.00
11049;BME280;5577;42.706;23.160;2023-01-27T08:52:19;93273.28;;;1.59;100.00
11049;BME280;5577;42.706;23.160;2023-01-27T08:55:03;93269.44;;;1.65;100.00
11049;BME280;5577;42.706;23.160;2023-01-27T08:57:47;93270.81;;;1.63;100.00
11049;BME280;5577;42.706;23.160;2023-01-27T09:00:31;93271.59;;;1.55;100.00
11049;BME280;5577;42.706;23.160;2023-01-27T09:03:16;93278.22;;;1.44;100.00
11049;BME280;5577;42.706;23.160;2023-01-27T09:06:00;93278.34;;;1.47;100.00
11049;BME280;5577;42.706;23.160;2023-01-27T09:08:44;93280.78;;;1.61;100.00
11049;BME280;5577;42.706;23.160;2023-01-27T09:11:48;93278.50;;;1.51;100.00
11049;BME280;5577;42.706;23.160;2023-01-27T09:14:32;93263.94;;;1.58;100.00
11049;BME280;5577;42.706;23.160;2023-01-27T09:17:16;93261.25;;;1.75;100.00
11049;BME280;5577;42.706;23.160;2023-01-27T09:20:02;93254.44;;;2.00;100.00
11049;BME280;5577;42.706;23.160;2023-01-27T09:22:46;93259.34;;;2.30;100.00
11049;BME280;5577;42.706;23.160;2023-01-27T09:25:31;93266.31;;;2.18;100.00
11049;BME280;5577;42.706;23.160;2023-01-27T09:28:15;93273.84;;;2.19;100.00
11049;BME280;5577;42.706;23.160;2023-01-27T09:31:02;93275.00;;;2.01;100.00
11049;BME280;5577;42.706;23.160;2023-01-27T09:33:46;93257.38;;;1.90;100.00
11049;BME280;5577;42.706;23.160;2023-01-27T09:36:32;93255.06;;;1.88;100.00
11049;BME280;5577;42.706;23.160;2023-01-27T09:39:20;93243.53;;;1.98;100.00
11049;BME280;5577;42.706;23.160;2023-01-27T09:42:13;93245.75;;;1.79;100.00
11049;BME280;5577;42.706;23.160;2023-01-27T09:45:41;93242.59;;;2.02;100.00
11049;BME280;5577;42.706;23.160;2023-01-27T09:54:22;93235.28;;;1.87;100.00
11049;BME280;5577;42.706;23.160;2023-01-27T10:00:10;93225.22;;;2.06;100.00
11049;BME280;5577;42.706;23.160;2023-01-27T10:12:05;93204.94;;;1.28;100.00
11049;BME280;5577;42.706;23.160;2023-01-27T10:26:51;93209.84;;;1.21;100.00
11049;BME280;5577;42.706;23.160;2023-01-27T10:29:45;93205.69;;;1.37;100.00
11049;BME280;5577;42.706;23.160;2023-01-27T10:35:25;93199.41;;;1.38;100.00
11049;BME280;5577;42.706;23.160;2023-01-27T10:41:35;93193.00;;;1.27;100.00
11049;BME280;5577;42.706;23.160;2023-01-27T10:50:29;93184.59;;;1.59;100.00
11049;BME280;5577;42.706;23.160;2023-01-27T10:57:20;93190.59;;;1.97;100.00
11049;BME280;5577;42.706;23.160;2023-01-27T11:00:16;93208.56;;;1.90;100.00
11049;BME280;5577;42.706;23.160;2023-01-27T11:03:12;93189.31;;;1.66;100.00
11049;BME280;5577;42.706;23.160;2023-01-27T11:06:16;93202.13;;;1.88;100.00
11049;BME280;5577;42.706;23.160;2023-01-27T11:09:11;93201.59;;;2.03;100.00
11049;BME280;5577;42.706;23.160;2023-01-27T11:12:02;93200.75;;;1.90;100.00
11049;BME280;5577;42.706;23.160;2023-01-27T11:14:50;93202.31;;;1.83;100.00
11049;BME280;5577;42.706;23.160;2023-01-27T11:17:47;93194.16;;;1.84;100.00
11049;BME280;5577;42.706;23.160;2023-01-27T11:20:38;93205.25;;;1.73;100.00
11049;BME280;5577;42.706;23.160;2023-01-27T11:23:28;93160.56;;;1.45;100.00
11049;BME280;5577;42.706;23.160;2023-01-27T11:29:22;93192.25;;;1.64;100.00
11049;BME280;5577;42.706;23.160;2023-01-27T11:35:12;93192.19;;;1.35;100.00
11049;BME280;5577;42.706;23.160;2023-01-27T11:37:56;93193.28;;;1.26;100.00
11049;BME280;5577;42.706;23.160;2023-01-27T11:40:40;93194.22;;;1.13;100.00
11049;BME280;5577;42.706;23.160;2023-01-27T11:43:25;93186.00;;;1.02;100.00
11049;BME280;5577;42.706;23.160;2023-01-27T11:46:20;93186.28;;;1.18;100.00
11049;BME280;5577;42.706;23.160;2023-01-27T11:49:08;93190.66;;;1.34;100.00
11049;BME280;5577;42.706;23.160;2023-01-27T11:51:59;93146.25;;;1.05;100.00
11049;BME280;5577;42.706;23.160;2023-01-27T11:55:10;93181.25;;;1.50;100.00
11049;BME280;5577;42.706;23.160;2023-01-27T11:58:27;93168.59;;;1.69;100.00
11049;BME280;5577;42.706;23.160;2023-01-27T12:01:20;93177.59;;;1.43;100.00
11049;BME280;5577;42.706;23.160;2023-01-27T12:07:02;93180.63;;;1.53;100.00
11049;BME280;5577;42.706;23.160;2023-01-27T12:09:47;93175.16;;;1.38;100.00
11049;BME280;5577;42.706;23.160;2023-01-27T12:12:35;93170.53;;;1.43;100.00
11049;BME280;5577;42.706;23.160;2023-01-27T12:15:19;93170.94;;;1.62;100.00
11049;BME280;5577;42.706;23.160;2023-01-27T12:18:14;93170.91;;;1.71;100.00
11049;BME280;5577;42.706;23.160;2023-01-27T12:23:54;93140.41;;;1.92;100.00
11049;BME280;5577;42.706;23.160;2023-01-27T12:26:41;93174.88;;;2.06;100.00
11049;BME280;5577;42.706;23.160;2023-01-27T12:32:16;93166.84;;;2.11;100.00
11049;BME280;5577;42.706;23.160;2023-01-27T12:35:01;93170.25;;;2.32;100.00
11049;BME280;5577;42.706;23.160;2023-01-27T12:37:47;93161.84;;;2.26;100.00
11049;BME280;5577;42.706;23.160;2023-01-27T12:40:32;93162.50;;;1.94;100.00
11049;BME280;5577;42.706;23.160;2023-01-27T12:43:18;93131.78;;;1.71;100.00
11049;BME280;5577;42.706;23.160;2023-01-27T12:46:16;93154.66;;;1.94;100.00
11049;BME280;5577;42.706;23.160;2023-01-27T12:49:11;93124.28;;;1.90;100.00
11049;BME280;5577;42.706;23.160;2023-01-27T12:52:01;93165.53;;;2.25;100.00
11049;BME280;5577;42.706;23.160;2023-01-27T12:54:47;93171.50;;;2.26;100.00
11049;BME280;5577;42.706;23.160;2023-01-27T12:57:34;93169.69;;;2.26;100.00
11049;BME280;5577;42.706;23.160;2023-01-27T13:00:18;93175.63;;;2.35;100.00
11049;BME280;5577;42.706;23.160;2023-01-27T13:03:05;93158.81;;;2.45;100.00
11049;BME280;5577;42.706;23.160;2023-01-27T13:05:56;93160.69;;;2.15;100.00
11049;BME280;5577;42.706;23.160;2023-01-27T13:08:41;93145.16;;;1.61;100.00
11049;BME280;5577;42.706;23.160;2023-01-27T13:11:35;93138.94;;;1.45;100.00
11049;BME280;5577;42.706;23.160;2023-01-27T13:14:21;93176.03;;;1.50;100.00
11049;BME280;5577;42.706;23.160;2023-01-27T13:17:26;93175.66;;;1.23;100.00
11049;BME280;5577;42.706;23.160;2023-01-27T13:20:33;93178.13;;;1.19;100.00
11049;BME280;5577;42.706;23.160;2023-01-27T13:23:22;93168.06;;;1.01;100.00
11049;BME280;5577;42.706;23.160;2023-01-27T13:34:46;93181.97;;;1.22;100.00
11049;BME280;5577;42.706;23.160;2023-01-27T13:37:42;93186.22;;;1.26;100.00
11049;BME280;5577;42.706;23.160;2023-01-27T13:40:39;93183.69;;;1.09;100.00
11049;BME280;5577;42.706;23.160;2023-01-27T13:43:32;93192.25;;;1.10;100.00
11049;BME280;5577;42.706;23.160;2023-01-27T13:46:32;93183.31;;;1.28;100.00
11049;BME280;5577;42.706;23.160;2023-01-27T13:49:40;93191.88;;;1.37;100.00
11049;BME280;5577;42.706;23.160;2023-01-27T13:52:27;93189.19;;;1.16;100.00
11049;BME280;5577;42.706;23.160;2023-01-27T13:55:12;93204.34;;;1.14;100.00
11049;BME280;5577;42.706;23.160;2023-01-27T13:58:30;93196.69;;;1.18;100.00
11049;BME280;5577;42.706;23.160;2023-01-27T14:07:46;93176.94;;;0.91;100.00
11049;BME280;5577;42.706;23.160;2023-01-27T14:10:40;93103.59;;;0.55;100.00
11049;BME280;5577;42.706;23.160;2023-01-27T14:28:56;93223.53;;;0.84;100.00
11049;BME280;5577;42.706;23.160;2023-01-27T14:44:09;93237.94;;;0.65;100.00
11049;BME280;5577;42.706;23.160;2023-01-27T14:50:02;93237.00;;;0.69;100.00
11049;BME280;5577;42.706;23.160;2023-01-27T14:53:14;93234.88;;;0.80;100.00
11049;BME280;5577;42.706;23.160;2023-01-27T15:02:35;93239.91;;;0.51;100.00
11049;BME280;5577;42.706;23.160;2023-01-27T15:20:40;93266.38;;;0.36;100.00
11049;BME280;5577;42.706;23.160;2023-01-27T15:26:22;93234.03;;;0.11;100.00
11049;BME280;5577;42.706;23.160;2023-01-27T15:29:19;93244.59;;;0.15;100.00
11049;BME280;5577;42.706;23.160;2023-01-27T15:32:25;93279.38;;;0.27;100.00
11049;BME280;5577;42.706;23.160;2023-01-27T15:35:28;93280.91;;;0.28;100.00
11049;BME280;5577;42.706;23.160;2023-01-27T15:38:17;93276.78;;;0.27;100.00
11049;BME280;5577;42.706;23.160;2023-01-27T15:41:10;93272.03;;;0.29;100.00
11049;BME280;5577;42.706;23.160;2023-01-27T15:47:11;93273.41;;;0.27;100.00
11049;BME280;5577;42.706;23.160;2023-01-27T15:50:21;93277.28;;;0.38;100.00
11049;BME280;5577;42.706;23.160;2023-01-27T15:53:12;93284.78;;;0.39;100.00
11049;BME280;5577;42.706;23.160;2023-01-27T15:55:58;93285.38;;;0.36;100.00
11049;BME280;5577;42.706;23.160;2023-01-27T15:58:54;93278.63;;;0.35;100.00
11049;BME280;5577;42.706;23.160;2023-01-27T16:01:40;93295.47;;;0.29;100.00
11049;BME280;5577;42.706;23.160;2023-01-27T16:04:26;93295.91;;;0.31;100.00
11049;BME280;5577;42.706;23.160;2023-01-27T16:07:28;93294.72;;;0.37;100.00
11049;BME280;5577;42.706;23.160;2023-01-27T16:10:17;93275.19;;;0.09;100.00
11049;BME280;5577;42.706;23.160;2023-01-27T16:22:03;93312.47;;;0.35;100.00
11049;BME280;5577;42.706;23.160;2023-01-27T16:25:00;93277.34;;;0.16;100.00
11049;BME280;5577;42.706;23.160;2023-01-27T16:28:03;93303.13;;;0.34;100.00
11049;BME280;5577;42.706;23.160;2023-01-27T16:31:19;93309.25;;;0.38;100.00
11049;BME280;5577;42.706;23.160;2023-01-27T16:34:16;93309.56;;;0.37;100.00
11049;BME280;5577;42.706;23.160;2023-01-27T16:37:28;93314.47;;;0.38;100.00
11049;BME280;5577;42.706;23.160;2023-01-27T16:40:15;93318.44;;;0.36;100.00
11049;BME280;5577;42.706;23.160;2023-01-27T16:43:07;93307.72;;;0.37;100.00
11049;BME280;5577;42.706;23.160;2023-01-27T16:45:59;93317.25;;;0.42;100.00
11049;BME280;5577;42.706;23.160;2023-01-27T16:48:45;93317.84;;;0.39;100.00
11049;BME280;5577;42.706;23.160;2023-01-27T16:51:31;93319.97;;;0.37;100.00
11049;BME280;5577;42.706;23.160;2023-01-27T16:54:22;93321.81;;;0.36;100.00
11049;BME280;5577;42.706;23.160;2023-01-27T16:57:33;93322.13;;;0.35;100.00
11049;BME280;5577;42.706;23.160;2023-01-27T17:00:25;93321.81;;;0.36;100.00
11049;BME280;5577;42.706;23.160;2023-01-27T17:03:15;93322.44;;;0.42;100.00
11049;BME280;5577;42.706;23.160;2023-01-27T17:06:04;93322.16;;;0.43;100.00
11049;BME280;5577;42.706;23.160;2023-01-27T17:08:49;93301.25;;;0.18;100.00
11049;BME280;5577;42.706;23.160;2023-01-27T17:11:32;93327.19;;;0.40;100.00
11049;BME280;5577;42.706;23.160;2023-01-27T17:14:19;93325.50;;;0.44;100.00
11049;BME280;5577;42.706;23.160;2023-01-27T17:17:04;93335.16;;;0.43;100.00
11049;BME280;5577;42.706;23.160;2023-01-27T17:20:04;93328.72;;;0.41;100.00